Time;durP1;ratioP1;P1;durP2;ratioP2;P2;SDS_P1;SDS_P2;PMS_P1;PMS_P2;Temp;Humidity;BMP_temperature;BMP_pressure;BME280_temperature;BME280_humidity;BME280_pressure;Samples;Min_cycle;Max_cycle;Signal;HPM_P1;HPM_P2
2022/04/13 00:00:58;;;;;;;6.93;5.97;;;12.90;99.90;;;;;;5043738;28;20179;-78
2022/04/13 00:03:24;;;;;;;9.82;6.65;;;12.80;99.90;;;;;;5044606;28;20048;-78
2022/04/13 00:05:50;;;;;;;7.70;6.82;;;;;;;;;;5033268;28;20045;-78
2022/04/13 00:08:16;;;;;;;7.55;6.13;;;12.70;99.90;;;;;;5052503;28;20040;-78
2022/04/13 00:10:43;;;;;;;7.78;6.65;;;12.70;99.90;;;;;;5051087;28;20129;-78
2022/04/13 00:13:08;;;;;;;8.30;6.72;;;12.60;99.90;;;;;;5045520;28;20052;-78
2022/04/13 00:15:34;;;;;;;7.05;6.15;;;12.60;99.90;;;;;;5030385;28;20043;-78
2022/04/13 00:18:04;;;;;;;8.82;6.47;;;12.50;99.90;;;;;;5050353;28;20041;-78
2022/04/13 00:20:30;;;;;;;9.05;6.88;;;12.50;99.90;;;;;;5052613;28;20045;-78
2022/04/13 00:22:56;;;;;;;8.38;6.80;;;12.40;99.90;;;;;;5040344;28;20042;-79
2022/04/13 00:25:21;;;;;;;7.35;6.60;;;12.40;99.90;;;;;;5016991;28;20045;-78
2022/04/13 00:27:47;;;;;;;7.28;6.32;;;12.30;99.90;;;;;;5028505;28;20033;-78
2022/04/13 00:30:12;;;;;;;8.85;6.32;;;12.30;99.90;;;;;;5038764;28;20041;-78
2022/04/13 00:32:38;;;;;;;9.50;6.65;;;12.20;99.90;;;;;;5051822;28;20036;-78
2022/04/13 00:35:04;;;;;;;8.52;6.80;;;12.20;99.90;;;;;;5044557;28;20067;-78
2022/04/13 00:37:31;;;;;;;7.78;6.40;;;12.10;99.90;;;;;;5024675;28;20487;-78
2022/04/13 00:39:56;;;;;;;7.18;6.47;;;12.10;99.90;;;;;;5042471;28;20114;-78
2022/04/13 00:42:22;;;;;;;6.80;6.07;;;12.10;99.90;;;;;;5050626;28;20459;-78
2022/04/13 00:44:48;;;;;;;8.20;6.97;;;12.00;99.90;;;;;;5033927;28;20068;-79
2022/04/13 00:47:13;;;;;;;6.90;6.00;;;12.00;99.90;;;;;;5045141;28;20064;-78
2022/04/13 00:49:40;;;;;;;6.97;6.25;;;11.90;99.90;;;;;;5031215;28;20040;-78
2022/04/13 00:52:06;;;;;;;7.65;6.32;;;11.90;99.90;;;;;;5050817;28;20072;-78
2022/04/13 00:54:33;;;;;;;7.28;6.57;;;11.90;99.90;;;;;;5033835;28;20057;-78
2022/04/13 00:57:06;;;;;;;7.70;6.65;;;11.80;99.90;;;;;;5032360;28;20052;-78
2022/04/13 00:59:33;;;;;;;7.38;6.68;;;11.80;99.90;;;;;;5033619;28;20057;-79
2022/04/13 01:01:59;;;;;;;8.05;7.25;;;11.80;99.90;;;;;;5025671;28;20110;-78
2022/04/13 01:04:30;;;;;;;7.65;6.93;;;11.80;99.90;;;;;;5040510;28;20478;-78
2022/04/13 01:06:56;;;;;;;8.27;6.82;;;11.80;99.90;;;;;;5052012;28;20098;-78
2022/04/13 01:09:25;;;;;;;8.93;7.50;;;11.80;99.90;;;;;;5033933;28;20053;-78
2022/04/13 01:11:50;;;;;;;7.55;6.80;;;11.70;99.90;;;;;;5050491;28;20045;-78
2022/04/13 01:14:16;;;;;;;7.82;7.07;;;11.70;99.90;;;;;;5050310;28;20455;-78
2022/04/13 01:16:42;;;;;;;7.78;6.97;;;11.70;99.90;;;;;;5036654;28;20039;-79
2022/04/13 01:19:08;;;;;;;8.15;7.43;;;11.60;99.90;;;;;;5015826;28;20044;-79
2022/04/13 01:21:47;;;;;;;9.98;7.47;;;11.70;99.90;;;;;;5037370;28;20058;-78
2022/04/13 01:24:13;;;;;;;9.20;7.50;;;11.60;99.90;;;;;;5051404;28;20040;-79
2022/04/13 01:26:39;;;;;;;8.20;7.38;;;11.60;99.90;;;;;;5050213;28;20422;-79
2022/04/13 01:29:05;;;;;;;8.00;7.25;;;11.50;99.90;;;;;;5044763;28;20045;-78
2022/04/13 01:31:32;;;;;;;12.95;8.52;;;11.50;99.90;;;;;;5031706;28;20041;-78
2022/04/13 01:33:59;;;;;;;9.00;7.93;;;11.50;99.90;;;;;;5039846;28;20037;-78
2022/04/13 01:36:25;;;;;;;8.70;7.80;;;11.50;99.90;;;;;;5030492;28;20083;-78
2022/04/13 01:38:51;;;;;;;9.07;7.78;;;11.50;99.90;;;;;;5034876;28;20775;-78
2022/04/13 01:41:17;;;;;;;9.60;7.80;;;11.50;99.90;;;;;;5043681;28;20112;-78
2022/04/13 01:43:42;;;;;;;8.93;8.02;;;11.50;99.90;;;;;;5032523;28;20112;-78
2022/04/13 01:46:08;;;;;;;9.63;8.38;;;11.40;99.90;;;;;;5043649;28;20044;-78
2022/04/13 01:48:33;;;;;;;8.57;7.75;;;11.40;99.90;;;;;;5043145;28;20391;-78
2022/04/13 01:50:59;;;;;;;10.30;8.10;;;11.50;99.90;;;;;;5045553;28;20072;-77
2022/04/13 01:53:25;;;;;;;7.78;6.97;;;11.50;99.90;;;;;;5049713;28;20145;-77
2022/04/13 01:55:53;;;;;;;9.23;8.07;;;11.50;99.90;;;;;;5033954;28;20132;-78
2022/04/13 01:58:20;;;;;;;9.93;8.20;;;11.40;99.90;;;;;;5040236;28;20534;-78
2022/04/13 02:00:45;;;;;;;9.50;8.60;;;11.40;99.90;;;;;;5032703;28;20144;-78
2022/04/13 02:03:11;;;;;;;9.07;7.63;;;11.40;99.90;;;;;;5049002;28;20387;-78
2022/04/13 02:05:36;;;;;;;10.55;8.88;;;11.40;99.90;;;;;;5046503;28;20120;-78
2022/04/13 02:08:02;;;;;;;12.00;7.90;;;11.40;99.90;;;;;;5046618;28;20457;-78
2022/04/13 02:10:28;;;;;;;10.43;8.95;;;11.40;99.90;;;;;;5035196;28;20128;-78
2022/04/13 02:12:53;;;;;;;9.82;8.82;;;11.40;99.90;;;;;;5031178;28;20045;-78
2022/04/13 02:15:20;;;;;;;10.63;9.00;;;11.40;99.90;;;;;;5040774;28;20445;-77
2022/04/13 02:17:45;;;;;;;10.57;9.57;;;11.40;99.90;;;;;;5050369;28;20132;-78
2022/04/13 02:20:11;;;;;;;9.38;8.30;;;11.40;99.90;;;;;;5050767;28;20208;-78
2022/04/13 02:22:36;;;;;;;10.50;8.80;;;11.30;99.90;;;;;;5018521;28;20048;-78
2022/04/13 02:25:04;;;;;;;13.55;8.77;;;11.30;99.90;;;;;;5045517;28;20461;-78
2022/04/13 02:27:29;;;;;;;10.10;9.13;;;11.30;99.90;;;;;;5041231;28;20057;-77
2022/04/13 02:29:55;;;;;;;10.45;8.73;;;11.30;99.90;;;;;;5037178;28;20041;-77
2022/04/13 02:32:20;;;;;;;10.30;9.23;;;11.20;99.90;;;;;;5033120;28;20041;-77
2022/04/13 02:34:48;;;;;;;11.13;8.90;;;11.20;99.90;;;;;;5030378;28;20041;-77
2022/04/13 02:37:17;;;;;;;10.15;9.02;;;11.20;99.90;;;;;;5031780;28;20045;-77
2022/04/13 02:39:44;;;;;;;10.70;9.52;;;11.10;99.90;;;;;;5040688;28;20038;-77
2022/04/13 02:42:14;;;;;;;12.40;9.70;;;11.20;99.90;;;;;;5030100;28;20041;-77
2022/04/13 02:44:43;;;;;;;11.20;9.88;;;11.10;99.90;;;;;;5027637;28;20029;-77
2022/04/13 02:47:08;;;;;;;14.27;10.07;;;11.10;99.90;;;;;;5048566;28;20049;-77
2022/04/13 02:49:34;;;;;;;11.60;9.40;;;11.10;99.90;;;;;;5032518;28;20044;-77
2022/04/13 02:51:59;;;;;;;11.55;9.20;;;11.10;99.90;;;;;;5044510;28;20059;-77
2022/04/13 02:54:25;;;;;;;11.43;9.60;;;11.10;99.90;;;;;;5030286;28;20049;-78
2022/04/13 02:56:50;;;;;;;11.25;9.27;;;11.00;99.90;;;;;;5034650;28;20040;-78
2022/04/13 02:59:16;;;;;;;11.38;10.10;;;11.00;99.90;;;;;;5046059;28;20040;-78
2022/04/13 03:01:43;;;;;;;11.10;9.90;;;11.00;99.90;;;;;;5046306;28;20044;-78
2022/04/13 03:04:09;;;;;;;11.25;10.15;;;11.00;99.90;;;;;;5035990;28;20041;-78
2022/04/13 03:06:35;;;;;;;12.23;10.57;;;11.00;99.90;;;;;;5048870;28;20051;-78
2022/04/13 03:09:03;;;;;;;10.95;9.77;;;10.90;99.90;;;;;;5037937;28;20084;-78
2022/04/13 03:11:29;;;;;;;13.20;11.07;;;10.90;99.90;;;;;;5031829;28;20047;-78
2022/04/13 03:13:55;;;;;;;11.65;10.40;;;10.90;99.90;;;;;;5043846;28;20049;-78
2022/04/13 03:16:20;;;;;;;11.50;10.02;;;10.80;99.90;;;;;;5014563;28;20049;-78
2022/04/13 03:18:46;;;;;;;11.25;10.13;;;10.80;99.90;;;;;;5034092;28;20420;-78
2022/04/13 03:21:12;;;;;;;11.73;10.48;;;10.80;99.90;;;;;;5046626;28;20107;-78
2022/04/13 03:23:37;;;;;;;14.38;11.27;;;10.70;99.90;;;;;;5021943;28;20564;-78
2022/04/13 03:26:03;;;;;;;13.45;11.07;;;10.70;99.90;;;;;;5066517;28;20044;-78
2022/04/13 03:28:28;;;;;;;14.77;10.95;;;10.70;99.90;;;;;;5055019;28;20041;-78
2022/04/13 03:30:54;;;;;;;11.68;10.48;;;10.60;99.90;;;;;;5048425;28;20098;-78
2022/04/13 03:33:19;;;;;;;13.10;10.35;;;10.60;99.90;;;;;;5046651;28;20538;-77
2022/04/13 03:35:45;;;;;;;12.55;10.90;;;10.60;99.90;;;;;;5047296;28;20029;-78
2022/04/13 03:38:11;;;;;;;12.27;10.98;;;10.50;99.90;;;;;;5049150;28;20045;-77
2022/04/13 03:40:36;;;;;;;12.82;10.95;;;10.60;99.90;;;;;;5047101;28;20036;-77
2022/04/13 03:43:02;;;;;;;13.60;11.50;;;10.60;99.90;;;;;;5016710;28;20080;-78
2022/04/13 03:45:27;;;;;;;14.27;11.70;;;10.50;99.90;;;;;;5037310;28;20068;-78
2022/04/13 03:47:53;;;;;;;13.50;11.57;;;10.50;99.90;;;;;;5034606;28;20033;-78
2022/04/13 03:50:18;;;;;;;13.73;11.77;;;10.60;99.90;;;;;;5038499;28;20505;-78
2022/04/13 03:52:44;;;;;;;13.20;10.80;;;10.60;99.90;;;;;;5049556;28;20485;-78
2022/04/13 03:55:11;;;;;;;12.68;11.38;;;10.70;99.90;;;;;;5039573;28;20045;-78
2022/04/13 03:57:37;;;;;;;13.80;12.07;;;10.70;99.90;;;;;;5040008;28;20041;-78
2022/04/13 04:00:07;;;;;;;14.13;10.88;;;10.70;99.90;;;;;;5053155;28;20052;-78
2022/04/13 04:02:35;;;;;;;13.65;12.25;;;10.80;99.90;;;;;;5048502;28;20080;-78
2022/04/13 04:05:02;;;;;;;17.38;11.32;;;10.80;99.90;;;;;;5052937;28;20041;-78
2022/04/13 04:07:27;;;;;;;15.60;11.30;;;10.80;99.90;;;;;;5043929;28;20082;-78
2022/04/13 04:09:53;;;;;;;15.15;11.07;;;10.90;99.90;;;;;;5049718;28;20068;-78
2022/04/13 04:12:18;;;;;;;16.80;11.77;;;10.90;99.90;;;;;;5052657;28;20052;-78
2022/04/13 04:14:44;;;;;;;16.98;12.68;;;10.90;99.90;;;;;;5034970;28;20052;-78
2022/04/13 04:17:09;;;;;;;14.50;11.82;;;11.00;99.90;;;;;;5051384;28;20080;-78
2022/04/13 04:19:35;;;;;;;14.23;11.85;;;11.00;99.90;;;;;;5036118;28;20042;-78
2022/04/13 04:22:01;;;;;;;14.35;11.85;;;11.00;99.90;;;;;;5044053;28;20044;-78
2022/04/13 04:24:26;;;;;;;13.10;11.73;;;11.00;99.90;;;;;;5044843;28;20037;-78
2022/04/13 04:26:52;;;;;;;18.92;13.02;;;11.00;99.90;;;;;;5050443;28;20041;-78
2022/04/13 04:29:17;;;;;;;14.38;12.88;;;11.10;99.90;;;;;;5038137;28;20155;-78
2022/04/13 04:31:53;;;;;;;13.70;12.30;;;11.10;99.90;;;;;;5032172;28;20041;-78
2022/04/13 04:34:23;;;;;;;14.65;12.02;;;11.10;99.90;;;;;;5033592;28;20048;-78
2022/04/13 04:36:49;;;;;;;17.35;12.13;;;11.00;99.90;;;;;;5032666;28;20038;-78
2022/04/13 04:39:15;;;;;;;18.15;12.77;;;11.00;99.90;;;;;;5028324;28;20047;-78
2022/04/13 04:41:41;;;;;;;19.20;13.02;;;11.00;99.90;;;;;;5052177;28;20033;-78
2022/04/13 04:44:08;;;;;;;18.50;12.75;;;11.00;99.90;;;;;;5037828;28;20066;-78
2022/04/13 04:46:34;;;;;;;16.25;13.02;;;11.00;99.90;;;;;;5035992;28;20474;-79
2022/04/13 04:49:00;;;;;;;20.10;13.75;;;11.00;99.90;;;;;;5049342;28;20083;-79
2022/04/13 04:51:25;;;;;;;17.60;12.73;;;11.00;99.90;;;;;;5051717;28;20108;-78
2022/04/13 04:53:51;;;;;;;14.20;12.70;;;11.00;99.90;;;;;;5043986;28;20136;-78
2022/04/13 04:56:16;;;;;;;17.05;13.20;;;11.00;99.90;;;;;;5032233;28;20446;-78
2022/04/13 04:58:42;;;;;;;18.23;14.02;;;11.00;99.90;;;;;;5016158;28;20056;-78
2022/04/13 05:01:09;;;;;;;20.02;14.10;;;11.00;99.90;;;;;;5042058;28;20033;-79
2022/04/13 05:03:34;;;;;;;16.02;12.52;;;11.00;99.90;;;;;;5040728;28;20114;-79
2022/04/13 05:06:00;;;;;;;16.15;14.43;;;10.90;99.90;;;;;;5035423;28;20080;-78
2022/04/13 05:08:25;;;;;;;17.83;13.93;;;10.90;99.90;;;;;;5035388;28;20498;-79
2022/04/13 05:10:51;;;;;;;38.58;14.80;;;10.90;99.90;;;;;;5038392;28;20047;-78
2022/04/13 05:13:17;;;;;;;20.67;13.90;;;10.90;99.90;;;;;;5051766;28;20413;-79
2022/04/13 05:15:43;;;;;;;18.77;14.25;;;11.00;99.90;;;;;;5051795;28;20052;-78
2022/04/13 05:18:08;;;;;;;18.67;13.80;;;11.00;99.90;;;;;;5050086;28;20391;-78
2022/04/13 05:20:34;;;;;;;19.25;15.30;;;11.00;99.90;;;;;;5051454;28;20447;-78
2022/04/13 05:22:59;;;;;;;17.30;13.77;;;11.10;99.90;;;;;;5034836;28;20040;-78
2022/04/13 05:25:25;;;;;;;17.48;14.30;;;11.20;99.90;;;;;;5051713;28;20044;-79
2022/04/13 05:27:50;;;;;;;17.48;13.90;;;11.10;99.90;;;;;;5034809;28;20033;-78
2022/04/13 05:30:16;;;;;;;18.00;13.88;;;11.20;99.90;;;;;;5064403;28;20450;-78
2022/04/13 05:32:50;;;;;;;19.27;13.65;;;11.20;99.90;;;;;;5050279;28;20120;-78
2022/04/13 05:35:17;;;;;;;17.42;14.02;;;11.30;99.90;;;;;;5050972;28;20068;-78
2022/04/13 05:37:43;;;;;;;16.00;13.52;;;11.40;99.90;;;;;;5050521;28;20390;-78
2022/04/13 05:40:09;;;;;;;17.25;13.65;;;11.40;99.90;;;;;;5038636;28;20037;-78
2022/04/13 05:42:35;;;;;;;17.02;14.10;;;11.50;99.90;;;;;;5044693;28;20060;-78
2022/04/13 05:45:00;;;;;;;19.20;14.02;;;11.50;99.90;;;;;;5032620;28;20360;-79
2022/04/13 05:47:26;;;;;;;19.95;14.15;;;11.60;99.90;;;;;;5050421;28;20045;-78
2022/04/13 05:49:52;;;;;;;16.85;13.88;;;11.60;99.90;;;;;;5034195;28;20056;-78
2022/04/13 05:52:17;;;;;;;17.10;14.30;;;11.70;99.90;;;;;;5051151;28;20461;-78
2022/04/13 05:54:43;;;;;;;19.58;12.98;;;11.70;99.90;;;;;;5022275;28;20052;-78
2022/04/13 05:57:09;;;;;;;19.50;13.57;;;11.80;99.90;;;;;;5031001;28;20360;-78
2022/04/13 05:59:35;;;;;;;19.83;13.82;;;11.70;99.90;;;;;;5031349;28;20093;-78
2022/04/13 06:02:02;;;;;;;16.23;12.55;;;11.80;99.90;;;;;;5049641;28;20390;-78
2022/04/13 06:04:27;;;;;;;20.20;13.93;;;11.80;99.90;;;;;;5042210;28;20033;-78
2022/04/13 06:06:54;;;;;;;17.52;13.38;;;11.90;99.90;;;;;;5043883;28;20041;-78
2022/04/13 06:09:21;;;;;;;17.17;14.60;;;11.90;99.90;;;;;;5051488;28;20037;-79
2022/04/13 06:11:46;;;;;;;17.00;14.65;;;12.00;99.90;;;;;;5049095;28;20116;-79
2022/04/13 06:14:12;;;;;;;16.63;14.50;;;12.10;99.90;;;;;;5041906;28;20087;-82
2022/04/13 06:16:37;;;;;;;20.05;16.60;;;12.20;99.90;;;;;;5050412;28;20037;-79
2022/04/13 06:19:03;;;;;;;16.15;14.13;;;12.30;99.90;;;;;;5033656;28;20048;-77
2022/04/13 06:21:28;;;;;;;20.60;15.10;;;12.60;99.90;;;;;;5034351;28;20045;-78
2022/04/13 06:23:54;;;;;;;17.92;14.55;;;12.80;99.90;;;;;;5035412;28;20035;-78
2022/04/13 06:26:19;;;;;;;21.23;15.65;;;13.20;99.90;;;;;;5034133;28;20052;-79
2022/04/13 06:28:45;;;;;;;18.17;15.02;;;13.90;99.90;;;;;;5034375;28;20052;-78
2022/04/13 06:31:10;;;;;;;30.63;16.75;;;14.60;99.90;;;;;;5031094;28;20042;-79
2022/04/13 06:33:36;;;;;;;17.40;14.93;;;15.00;99.90;;;;;;5044326;28;20032;-79
2022/04/13 06:36:05;;;;;;;21.25;16.30;;;15.20;99.90;;;;;;5050720;28;20048;-79
2022/04/13 06:38:31;;;;;;;20.75;15.55;;;15.30;99.90;;;;;;5050691;28;20049;-79
2022/04/13 06:40:56;;;;;;;17.75;15.85;;;15.50;99.90;;;;;;5050511;28;20048;-79
2022/04/13 06:43:22;;;;;;;20.75;15.35;;;15.70;99.90;;;;;;5023225;28;20037;-79
2022/04/13 06:45:47;;;;;;;17.42;15.18;;;16.10;99.90;;;;;;5030946;28;20049;-79
2022/04/13 06:48:13;;;;;;;18.65;14.68;;;16.60;99.90;;;;;;5036577;28;20037;-79
2022/04/13 06:50:39;;;;;;;22.10;15.23;;;16.80;99.90;;;;;;5030034;28;20040;-79
2022/04/13 06:53:04;;;;;;;23.77;13.75;;;16.80;99.90;;;;;;5033486;28;20091;-79
2022/04/13 06:55:30;;;;;;;22.17;15.38;;;16.70;99.90;;;;;;5038542;28;20057;-79
2022/04/13 06:57:56;;;;;;;19.33;14.10;;;16.60;99.90;;;;;;5026336;28;20041;-79
2022/04/13 07:00:22;;;;;;;17.52;14.00;;;16.40;99.90;;;;;;5043426;28;20072;-80
2022/04/13 07:02:48;;;;;;;15.05;12.50;;;16.30;99.90;;;;;;5021184;28;20111;-80
2022/04/13 07:05:13;;;;;;;14.88;13.18;;;16.20;99.90;;;;;;5042583;28;20038;-80
2022/04/13 07:07:39;;;;;;;19.30;13.82;;;16.10;99.90;;;;;;5047177;28;20083;-79
2022/04/13 07:10:05;;;;;;;19.88;12.52;;;16.00;99.90;;;;;;5033251;28;20045;-80
2022/04/13 07:12:35;;;;;;;16.65;11.90;;;16.10;99.90;;;;;;5033427;28;20045;-80
2022/04/13 07:15:01;;;;;;;16.98;12.70;;;16.70;99.90;;;;;;5050409;28;20478;-80
2022/04/13 07:17:26;;;;;;;15.77;12.18;;;17.20;99.90;;;;;;5030845;28;20041;-80
2022/04/13 07:19:52;;;;;;;14.57;12.45;;;17.90;99.90;;;;;;5047772;28;20040;-78
2022/04/13 07:22:18;;;;;;;16.15;11.43;;;18.80;98.10;;;;;;5045481;28;20033;-78
2022/04/13 07:24:43;;;;;;;15.52;11.60;;;19.60;96.00;;;;;;5037822;28;20033;-79
2022/04/13 07:27:09;;;;;;;13.32;10.45;;;20.30;95.70;;;;;;5045373;28;20041;-79
2022/04/13 07:29:34;;;;;;;15.18;11.55;;;20.90;92.90;;;;;;5050333;28;20087;-79
2022/04/13 07:32:00;;;;;;;15.88;10.80;;;21.30;91.80;;;;;;5052206;28;20087;-78
2022/04/13 07:34:25;;;;;;;13.90;10.13;;;21.60;90.30;;;;;;5042641;28;20040;-78
2022/04/13 07:36:51;;;;;;;11.30;9.40;;;21.90;88.00;;;;;;5028679;28;20037;-78
2022/04/13 07:39:16;;;;;;;12.90;9.68;;;21.90;87.10;;;;;;5033521;28;20046;-78
2022/04/13 07:41:42;;;;;;;13.75;9.52;;;21.90;89.10;;;;;;5039279;28;20037;-78
2022/04/13 07:44:08;;;;;;;13.00;8.50;;;21.70;85.50;;;;;;5021239;28;20526;-78
2022/04/13 07:46:33;;;;;;;14.73;9.52;;;21.50;85.20;;;;;;5042095;28;20798;-77
2022/04/13 07:48:59;;;;;;;15.23;8.68;;;21.00;87.80;;;;;;5034984;28;20483;-78
2022/04/13 07:51:24;;;;;;;10.90;9.57;;;20.40;89.10;;;;;;5034032;28;20049;-78
2022/04/13 07:53:50;;;;;;;13.63;9.50;;;19.60;92.00;;;;;;5029217;28;20056;-79
2022/04/13 07:56:16;;;;;;;13.35;11.07;;;19.30;91.70;;;;;;5035215;28;20144;-79
2022/04/13 07:58:41;;;;;;;15.35;11.20;;;18.70;92.50;;;;;;5050168;28;20052;-77
2022/04/13 08:01:07;;;;;;;13.48;9.63;;;18.10;97.00;;;;;;5053478;28;20039;-78
2022/04/13 08:03:32;;;;;;;15.60;10.48;;;17.90;94.90;;;;;;5039382;28;20067;-78
2022/04/13 08:05:58;;;;;;;12.68;10.35;;;17.60;96.50;;;;;;5017054;28;20049;-78
2022/04/13 08:08:23;;;;;;;14.75;10.30;;;17.40;98.50;;;;;;5034620;28;20045;-78
2022/04/13 08:10:49;;;;;;;16.50;10.57;;;17.30;97.80;;;;;;5039337;28;20044;-78
2022/04/13 08:13:15;;;;;;;15.88;10.70;;;17.10;99.30;;;;;;5022604;28;20048;-78
2022/04/13 08:15:40;;;;;;;18.85;10.82;;;17.00;98.40;;;;;;5040455;28;20048;-78
2022/04/13 08:18:06;;;;;;;14.82;9.88;;;17.00;98.80;;;;;;5053172;28;20041;-78
2022/04/13 08:20:32;;;;;;;12.05;8.65;;;16.90;99.90;;;;;;5046002;28;20041;-78
2022/04/13 08:22:57;;;;;;;12.52;9.32;;;17.00;98.60;;;;;;5032908;28;20068;-78
2022/04/13 08:25:23;;;;;;;16.00;10.43;;;16.90;99.90;;;;;;5034129;28;20094;-78
2022/04/13 08:27:49;;;;;;;13.73;10.10;;;16.80;99.90;;;;;;5050890;28;20033;-78
2022/04/13 08:30:14;;;;;;;17.98;10.80;;;16.80;99.60;;;;;;5049848;28;20445;-78
2022/04/13 08:32:40;;;;;;;12.07;9.10;;;16.70;99.90;;;;;;5016417;28;20041;-78
2022/04/13 08:35:09;;;;;;;14.75;8.88;;;16.90;99.60;;;;;;5034086;28;20041;-78
2022/04/13 08:37:35;;;;;;;12.68;10.20;;;17.00;99.80;;;;;;5052266;28;20120;-79
2022/04/13 08:40:00;;;;;;;13.25;8.95;;;17.00;99.90;;;;;;5033139;28;20127;-80
2022/04/13 08:42:30;;;;;;;11.48;9.45;;;17.20;99.90;;;;;;5050581;28;20033;-79
2022/04/13 08:45:04;;;;;;;13.25;8.85;;;17.40;99.80;;;;;;5047382;28;20051;-79
2022/04/13 08:47:37;;;;;;;12.25;7.95;;;17.50;99.80;;;;;;5052480;28;20045;-79
2022/04/13 08:50:04;;;;;;;11.35;7.93;;;17.60;99.10;;;;;;5046316;28;20111;-78
2022/04/13 08:52:31;;;;;;;10.40;6.75;;;17.70;99.90;;;;;;5032714;28;20049;-79
2022/04/13 08:55:06;;;;;;;12.30;6.30;;;17.90;98.20;;;;;;5051894;28;20132;-78
2022/04/13 08:57:36;;;;;;;12.38;6.95;;;17.90;97.90;;;;;;5051280;28;20510;-78
2022/04/13 09:00:10;;;;;;;8.75;6.47;;;18.00;97.40;;;;;;5046251;28;20387;-78
2022/04/13 09:02:45;;;;;;;9.52;6.22;;;18.10;97.20;;;;;;5029629;28;20069;-78
2022/04/13 09:05:18;;;;;;;7.28;5.40;;;18.20;97.10;;;;;;5051516;28;20647;-78
2022/04/13 09:07:49;;;;;;;8.05;4.80;;;18.20;97.30;;;;;;5046017;28;20041;-78
2022/04/13 09:10:20;;;;;;;10.18;5.43;;;18.20;96.80;;;;;;5032191;28;20080;-78
2022/04/13 09:12:49;;;;;;;8.23;5.40;;;18.10;96.90;;;;;;5051118;28;20036;-78
2022/04/13 09:15:15;;;;;;;7.85;5.35;;;18.00;97.30;;;;;;5051253;28;20067;-78
2022/04/13 09:17:41;;;;;;;9.05;6.05;;;18.10;97.10;;;;;;5024731;28;20030;-78
2022/04/13 09:20:07;;;;;;;12.57;6.05;;;18.20;96.00;;;;;;5039554;28;20072;-78
2022/04/13 09:22:34;;;;;;;7.10;5.78;;;18.20;96.90;;;;;;5050104;28;20049;-77
2022/04/13 09:25:01;;;;;;;6.38;5.25;;;18.20;98.90;;;;;;5036233;28;20037;-78
2022/04/13 09:27:27;;;;;;;9.85;6.03;;;18.30;98.60;;;;;;5029744;28;20060;-77
2022/04/13 09:29:53;;;;;;;9.35;5.38;;;18.40;96.20;;;;;;5043040;28;20147;-78
2022/04/13 09:32:19;;;;;;;9.35;5.60;;;18.40;97.70;;;;;;5020698;28;20132;-77
2022/04/13 09:34:45;;;;;;;7.13;5.03;;;18.50;98.20;;;;;;5030317;28;20116;-77
2022/04/13 09:37:11;;;;;;;9.45;5.35;;;18.50;97.40;;;;;;5045496;28;20195;-77
2022/04/13 09:39:37;;;;;;;6.93;4.72;;;18.60;96.00;;;;;;5031546;28;20042;-77
2022/04/13 09:42:04;;;;;;;6.28;4.03;;;18.70;97.10;;;;;;5015762;28;20034;-77
2022/04/13 09:44:32;;;;;;;6.78;4.50;;;18.70;96.30;;;;;;5014801;28;20167;-77
2022/04/13 09:47:12;;;;;;;5.85;4.22;;;18.70;96.70;;;;;;5040223;28;20056;-77
2022/04/13 09:49:45;;;;;;;8.80;5.05;;;18.70;96.40;;;;;;5033368;28;20087;-77
2022/04/13 09:52:11;;;;;;;8.98;4.18;;;18.80;96.00;;;;;;5047707;28;20677;-77
2022/04/13 09:54:45;;;;;;;7.07;4.43;;;18.80;96.60;;;;;;5049234;28;20124;-77
2022/04/13 09:57:21;;;;;;;7.88;4.00;;;18.90;95.90;;;;;;5047404;28;20556;-77
2022/04/13 09:59:53;;;;;;;7.55;3.92;;;18.90;96.50;;;;;;5034665;28;20053;-78
2022/04/13 10:02:34;;;;;;;4.80;3.90;;;18.90;97.20;;;;;;5047137;28;20025;-77
2022/04/13 10:05:00;;;;;;;7.25;3.80;;;19.00;96.70;;;;;;5048146;28;20032;-77
2022/04/13 10:07:25;;;;;;;5.13;3.88;;;19.10;94.90;;;;;;5048819;28;20771;-77
2022/04/13 10:09:51;;;;;;;6.03;3.60;;;19.10;95.10;;;;;;5049195;28;20056;-77
2022/04/13 10:12:16;;;;;;;9.00;4.20;;;19.10;95.20;;;;;;5046457;28;20049;-78
2022/04/13 10:14:43;;;;;;;7.38;4.57;;;19.10;96.20;;;;;;5018992;28;20036;-78
2022/04/13 10:17:15;;;;;;;6.88;4.05;;;19.20;94.60;;;;;;5031996;28;20030;-78
2022/04/13 10:19:43;;;;;;;5.80;4.20;;;19.30;94.80;;;;;;5032489;28;20057;-78
2022/04/13 10:22:09;;;;;;;7.85;4.35;;;19.40;95.20;;;;;;5048313;28;20116;-78
2022/04/13 10:24:40;;;;;;;5.10;3.33;;;19.50;94.40;;;;;;5034106;28;20120;-78
2022/04/13 10:27:20;;;;;;;6.90;3.92;;;19.80;93.40;;;;;;5032407;28;20127;-78
2022/04/13 10:29:47;;;;;;;6.40;3.60;;;19.80;93.60;;;;;;5022458;28;20175;-78
2022/04/13 10:32:25;;;;;;;5.32;3.40;;;19.90;93.90;;;;;;5033502;28;20039;-79
2022/04/13 10:34:52;;;;;;;5.35;4.22;;;19.90;93.50;;;;;;5028375;28;20045;-79
2022/04/13 10:37:20;;;;;;;5.78;3.42;;;20.10;93.20;;;;;;5030389;28;20125;-79
2022/04/13 10:39:47;;;;;;;6.05;3.78;;;20.10;92.50;;;;;;5032919;28;20370;-78
2022/04/13 10:42:16;;;;;;;5.95;3.63;;;20.20;92.10;;;;;;5048681;28;20045;-78
2022/04/13 10:44:47;;;;;;;5.43;3.63;;;20.20;92.70;;;;;;5050013;28;20093;-78
2022/04/13 10:47:18;;;;;;;6.27;3.60;;;20.10;93.10;;;;;;5047734;28;20052;-78
2022/04/13 10:49:54;;;;;;;5.50;3.15;;;20.10;92.80;;;;;;5040609;28;20045;-78
2022/04/13 10:52:28;;;;;;;6.65;3.53;;;20.10;94.20;;;;;;5032678;28;20056;-79
2022/04/13 10:55:14;;;;;;;4.63;3.63;;;20.10;92.20;;;;;;5013352;28;20045;-79
2022/04/13 10:57:58;;;;;;;5.82;3.60;;;20.10;93.10;;;;;;5035527;28;20041;-79
2022/04/13 11:00:25;;;;;;;5.07;3.35;;;20.00;94.10;;;;;;5042874;28;20045;-79
2022/04/13 11:02:57;;;;;;;6.88;3.80;;;20.00;93.80;;;;;;5041308;28;20033;-79
2022/04/13 11:05:25;;;;;;;8.30;3.75;;;20.00;93.70;;;;;;5056486;28;20513;-79
2022/04/13 11:08:12;;;;;;;7.68;3.92;;;19.90;94.80;;;;;;5097262;22;20059;-78
2022/04/13 11:10:38;;;;;;;7.93;3.70;;;20.00;93.10;;;;;;5081641;28;20083;-78
2022/04/13 11:13:04;;;;;;;5.78;3.40;;;19.90;93.80;;;;;;5087113;28;20036;-78
2022/04/13 11:15:37;;;;;;;6.65;3.65;;;20.00;93.60;;;;;;5086562;28;20089;-78
2022/04/13 11:18:11;;;;;;;6.70;3.63;;;20.10;92.60;;;;;;5095124;28;20534;-78
2022/04/13 11:20:58;;;;;;;4.22;3.42;;;20.10;93.40;;;;;;5076537;28;20032;-79
2022/04/13 11:23:23;;;;;;;7.20;3.15;;;20.10;93.00;;;;;;5085487;28;20122;-79
2022/04/13 11:25:51;;;;;;;6.05;3.00;;;20.10;93.60;;;;;;5079670;28;20501;-78
2022/04/13 11:28:28;;;;;;;10.65;3.47;;;20.20;92.40;;;;;;5092253;28;20040;-79
2022/04/13 11:31:02;;;;;;;6.43;3.00;;;20.30;93.30;;;;;;5096989;28;20035;-79
2022/04/13 11:33:55;;;;;;;5.05;2.67;;;20.30;92.80;;;;;;5096000;28;20029;-79
2022/04/13 11:36:24;;;;;;;4.55;2.90;;;20.20;93.80;;;;;;5080170;28;20481;-78
2022/04/13 11:38:53;;;;;;;7.60;3.40;;;20.20;93.20;;;;;;5096822;28;20052;-79
2022/04/13 11:41:20;;;;;;;8.88;3.20;;;20.20;93.00;;;;;;5079265;28;20036;-79
2022/04/13 11:43:46;;;;;;;8.80;3.60;;;20.30;92.30;;;;;;5079906;28;20123;-79
2022/04/13 11:46:39;;;;;;;6.75;2.95;;;20.40;93.50;;;;;;5096782;28;20085;-78
2022/04/13 11:49:09;;;;;;;4.88;2.50;;;20.50;92.20;;;;;;5113497;28;20044;-79
2022/04/13 11:51:34;;;;;;;4.70;2.60;;;20.40;92.60;;;;;;5094841;28;20044;-79
2022/04/13 11:54:09;;;;;;;4.60;1.90;;;20.10;92.60;;;;;;5096557;28;20640;-79
2022/04/13 11:56:48;;;;;;;5.30;2.00;;;20.10;92.90;;;;;;5095003;28;20036;-79
2022/04/13 11:59:36;;;;;;;4.78;2.13;;;20.10;92.70;;;;;;5096714;28;20090;-79
2022/04/13 12:02:06;;;;;;;6.78;2.80;;;19.90;92.70;;;;;;5060786;28;20050;-79
2022/04/13 12:04:33;;;;;;;5.22;2.50;;;19.80;92.70;;;;;;5060089;28;20033;-79
2022/04/13 12:07:00;;;;;;;5.82;3.58;;;19.70;93.20;;;;;;5094645;28;20181;-79
2022/04/13 12:09:27;;;;;;;4.35;2.72;;;19.60;93.20;;;;;;5095116;28;20043;-79
2022/04/13 12:11:55;;;;;;;10.27;3.90;;;19.60;93.30;;;;;;5090340;28;20055;-79
2022/04/13 12:14:30;;;;;;;7.72;4.00;;;19.60;93.80;;;;;;5076039;28;20668;-79
2022/04/13 12:16:57;;;;;;;8.70;4.57;;;19.60;94.50;;;;;;5058634;28;20059;-79
2022/04/13 12:19:22;;;;;;;9.48;5.20;;;19.60;95.30;;;;;;5071049;28;20040;-79
2022/04/13 12:21:48;;;;;;;8.85;5.65;;;19.90;94.50;;;;;;5073087;28;20119;-79
2022/04/13 12:24:14;;;;;;;10.10;6.70;;;20.00;95.30;;;;;;5073603;28;20093;-79
2022/04/13 12:26:41;;;;;;;9.63;6.15;;;20.10;94.30;;;;;;5076294;28;20531;-79
2022/04/13 12:29:17;;;;;;;8.18;4.30;;;20.10;94.40;;;;;;5091436;28;20058;-79
2022/04/13 12:31:43;;;;;;;6.75;3.65;;;20.00;93.50;;;;;;5075766;28;20505;-79
2022/04/13 12:34:14;;;;;;;6.70;2.45;;;19.80;94.70;;;;;;5075888;28;20048;-79
2022/04/13 12:36:40;;;;;;;4.95;1.52;;;19.70;93.60;;;;;;5072644;28;20040;-80
2022/04/13 12:39:09;;;;;;;3.55;1.45;;;19.60;93.60;;;;;;5073689;28;20581;-79